»·PEaware :: DAL258 KSLC-KJAC

DAL258 :: KSLC-KJAC

FLIGHT INFORMATION

Flight Status: Arrived
Operator:
Delta Air Lines
More flights by this operator :: More flights under this callsign
Pilot: Brad M. (22842)
Aircraft: AIRBUS A319
(A319)
More flights by this aircraft type
Origin: KSLC Salt Lake City Intl
United States
Destination: KJAC Jackson Hole
United States
More flights between these airports :: More routes between these airports
Route: RUGGD1 HOLTR JAC
File this flight plan on PilotEdge
Remarks:
Altitude:
(Current/Filed)
33,000ft
Speed:
(Current/Filed)
450kts
Departed: 06-Aug-19 02:41 PM
Arrived: 06-Aug-19 03:22 PM
Distance/Time
Traveled:
178nm/0:41
Distance/Time
To Go:
Arrived

Flight Plot

Page will automatically refresh every two minutes.

Flight plan parsing failed; only flown route is shown


Map Options




Map Legend


Flown Route
Filed Route
Departure Airport
Arrival Airport
Navaid (VOR, NDB)
Fix

Horizontal Profiles

Position Reports

Time Latitude Longitude Heading Altitude Ground
Speed
06-Aug-19 13:55 40.788510 -111.980782 283 4236ft 0kts
06-Aug-19 13:56 40.788510 -111.980782 283 4236ft 0kts
06-Aug-19 13:57 40.788510 -111.980782 283 4236ft 0kts
06-Aug-19 13:58 40.788510 -111.980782 283 4236ft 0kts
06-Aug-19 13:59 40.788510 -111.980782 283 4236ft 0kts
06-Aug-19 14:00 40.788510 -111.980782 283 4236ft 0kts
06-Aug-19 14:01 40.788510 -111.980782 283 4236ft 0kts
06-Aug-19 14:02 40.788510 -111.980782 283 4236ft 0kts
06-Aug-19 14:03 40.788510 -111.980782 283 4236ft 0kts
06-Aug-19 14:04 40.788510 -111.980782 283 4236ft 0kts
06-Aug-19 14:05 40.788510 -111.980782 283 4236ft 0kts
06-Aug-19 14:06 40.788510 -111.980782 283 4236ft 0kts
06-Aug-19 14:07 40.788510 -111.980782 283 4236ft 0kts
06-Aug-19 14:08 40.788510 -111.980782 283 4236ft 0kts
06-Aug-19 14:09 40.788510 -111.980782 283 4236ft 0kts
06-Aug-19 14:10 40.788510 -111.980782 283 4236ft 0kts
06-Aug-19 14:11 40.788510 -111.980782 283 4236ft 0kts
06-Aug-19 14:12 40.788510 -111.980782 283 4236ft 0kts
06-Aug-19 14:13 40.788510 -111.980782 283 4236ft 0kts
06-Aug-19 14:14 40.788510 -111.980782 283 4236ft 0kts
06-Aug-19 14:15 40.788510 -111.980782 283 4236ft 0kts
06-Aug-19 14:16 40.788510 -111.980782 283 4236ft 0kts
06-Aug-19 14:17 40.788510 -111.980782 283 4236ft 0kts
06-Aug-19 14:18 40.788509 -111.980782 283 4236ft 0kts
06-Aug-19 14:19 40.788509 -111.980782 283 4236ft 0kts
06-Aug-19 14:20 40.788509 -111.980782 283 4236ft 0kts
06-Aug-19 14:21 40.788509 -111.980782 283 4236ft 0kts
06-Aug-19 14:22 40.788509 -111.980782 283 4236ft 0kts
06-Aug-19 14:23 40.788509 -111.980782 283 4236ft 0kts
06-Aug-19 14:24 40.788509 -111.980782 283 4236ft 0kts
06-Aug-19 14:25 40.788509 -111.980782 283 4236ft 0kts
06-Aug-19 14:26 40.788509 -111.980782 283 4236ft 0kts
06-Aug-19 14:27 40.788509 -111.980782 283 4236ft 0kts
06-Aug-19 14:28 40.788509 -111.980782 283 4236ft 0kts
06-Aug-19 14:29 40.788365 -111.980196 316 4236ft 2kts
06-Aug-19 14:30 40.787981 -111.980110 19 4236ft 0kts
06-Aug-19 14:31 40.787981 -111.980110 19 4236ft 0kts
06-Aug-19 14:32 40.788135 -111.980037 19 4236ft 4kts
06-Aug-19 14:33 40.789692 -111.978498 84 4236ft 0kts
06-Aug-19 14:34 40.789228 -111.976996 176 4236ft 10kts
06-Aug-19 14:35 40.785122 -111.976532 174 4236ft 17kts
06-Aug-19 14:36 40.779845 -111.975919 173 4236ft 19kts
06-Aug-19 14:37 40.774736 -111.974810 161 4236ft 11kts
06-Aug-19 14:38 40.774674 -111.974770 149 4236ft 0kts
06-Aug-19 14:39 40.775345 -111.973205 355 4236ft 0kts
06-Aug-19 14:40 40.804394 -111.976528 351 4588ft 170kts
06-Aug-19 14:41 40.843982 -112.009746 320 6458ft 186kts
06-Aug-19 14:42 40.891260 -112.054514 321 7902ft 233kts
06-Aug-19 14:43 40.959829 -112.048967 17 9576ft 292kts
06-Aug-19 14:44 41.038772 -112.018058 28 12305ft 303kts
06-Aug-19 14:45 41.081608 -111.922364 66 14720ft 314kts
06-Aug-19 14:46 41.120803 -111.810223 64 16117ft 360kts
06-Aug-19 14:47 41.204510 -111.750073 6 18303ft 366kts
06-Aug-19 14:48 41.307043 -111.726995 7 20491ft 377kts
06-Aug-19 14:49 41.409844 -111.699646 13 22547ft 388kts
06-Aug-19 14:50 41.514501 -111.658535 13 24500ft 397kts
06-Aug-19 14:51 41.622105 -111.616225 12 26229ft 408kts
06-Aug-19 14:52 41.732472 -111.572710 12 27815ft 418kts
06-Aug-19 14:53 41.846397 -111.536021 4 29240ft 424kts
06-Aug-19 14:54 41.964262 -111.509707 4 30555ft 433kts
06-Aug-19 14:55 42.083954 -111.482529 3 31190ft 432kts
06-Aug-19 14:56 42.200961 -111.456005 4 29205ft 422kts
06-Aug-19 14:57 42.314154 -111.422551 17 27325ft 416kts
06-Aug-19 14:58 42.416643 -111.352208 23 25527ft 405kts
06-Aug-19 14:59 42.515101 -111.282449 24 24176ft 396kts
06-Aug-19 15:00 42.613208 -111.213154 24 24175ft 396kts
06-Aug-19 15:01 42.710275 -111.144446 24 22750ft 387kts
06-Aug-19 15:02 42.804929 -111.077259 24 20885ft 378kts
06-Aug-19 15:03 42.897298 -111.011464 24 19040ft 369kts
06-Aug-19 15:04 42.987507 -110.946980 24 17236ft 361kts
06-Aug-19 15:05 43.075431 -110.883945 24 15502ft 351kts
06-Aug-19 15:06 43.161073 -110.822503 25 14010ft 339kts
06-Aug-19 15:07 43.245682 -110.761484 25 14006ft 342kts
06-Aug-19 15:08 43.330149 -110.700325 24 14009ft 342kts
06-Aug-19 15:09 43.414363 -110.639132 24 14009ft 342kts
06-Aug-19 15:10 43.498630 -110.577732 24 14009ft 341kts
06-Aug-19 15:11 43.582802 -110.516180 24 14009ft 341kts
06-Aug-19 15:12 43.666343 -110.454913 24 13094ft 335kts
06-Aug-19 15:13 43.746426 -110.395956 24 12172ft 315kts
06-Aug-19 15:14 43.816450 -110.426646 290 11009ft 277kts
06-Aug-19 15:15 43.814781 -110.521129 259 10924ft 232kts
06-Aug-19 15:16 43.789651 -110.603246 245 9930ft 231kts
06-Aug-19 15:17 43.743778 -110.663682 220 8636ft 202kts
06-Aug-19 15:18 43.700486 -110.692099 200 8326ft 166kts
06-Aug-19 15:19 43.657433 -110.713360 200 7269ft 162kts
06-Aug-19 15:20 43.614923 -110.734060 199 6443ft 159kts
06-Aug-19 15:21 43.599554 -110.740090 53 6429ft 9kts
06-Aug-19 15:22 43.602538 -110.738496 19 6429ft 13kts
06-Aug-19 15:23 43.603494 -110.737106 111 6429ft 0kts

Navigation Log

Ident Type
Flight plan parsing failed, navigation log unavailable